createdAt,value
2019-02-04T00:00:20.119Z,1008.97
2019-02-04T00:01:20.078Z,1009.01
2019-02-04T00:02:20.071Z,1009.00
2019-02-04T00:03:20.064Z,1008.96
2019-02-04T00:04:20.058Z,1008.97
2019-02-04T00:05:20.067Z,1009.02
2019-02-04T00:06:20.026Z,1008.94
2019-02-04T00:07:20.022Z,1008.93
2019-02-04T00:08:20.009Z,1008.97
2019-02-04T00:09:19.999Z,1009.02
2019-02-04T00:10:20.013Z,1009.05
2019-02-04T00:11:19.983Z,1008.99
2019-02-04T00:12:19.968Z,1009.03
2019-02-04T00:13:19.954Z,1009.03
2019-02-04T00:14:19.949Z,1008.96
2019-02-04T00:15:19.958Z,1009.00
2019-02-04T00:16:19.934Z,1008.82
2019-02-04T00:17:19.917Z,1008.95
2019-02-04T00:18:19.903Z,1008.97
2019-02-04T00:19:19.897Z,1008.91
2019-02-04T00:20:19.909Z,1008.86
2019-02-04T00:21:19.882Z,1008.86
2019-02-04T00:22:19.861Z,1008.86
2019-02-04T00:23:19.852Z,1008.79
2019-02-04T00:24:19.839Z,1008.86
2019-02-04T00:25:21.570Z,1008.84
2019-02-04T00:26:19.819Z,1008.92
2019-02-04T00:27:19.807Z,1008.87
2019-02-04T00:28:19.797Z,1008.90
2019-02-04T00:29:19.794Z,1008.84
2019-02-04T00:30:19.804Z,1008.88
2019-02-04T00:31:19.801Z,1008.86
2019-02-04T00:32:19.756Z,1008.84
2019-02-04T00:33:19.753Z,1008.89
2019-02-04T00:34:19.732Z,1008.95
2019-02-04T00:35:19.755Z,1008.91
2019-02-04T00:36:19.717Z,1008.84
2019-02-04T00:37:19.700Z,1008.89
2019-02-04T00:38:19.692Z,1008.90
2019-02-04T00:39:19.679Z,1008.90
2019-02-04T00:40:19.689Z,1008.96
2019-02-04T00:41:19.652Z,1008.86
2019-02-04T00:42:19.643Z,1008.89
2019-02-04T00:43:19.631Z,1008.87
2019-02-04T00:44:19.622Z,1008.92
2019-02-04T00:45:19.635Z,1008.91
2019-02-04T00:46:19.610Z,1008.88
2019-02-04T00:47:19.590Z,1008.86
2019-02-04T00:48:19.576Z,1008.90
2019-02-04T00:49:19.567Z,1008.93
2019-02-04T00:50:19.587Z,1008.96
2019-02-04T00:51:19.555Z,1008.89
2019-02-04T00:52:19.535Z,1008.90
2019-02-04T00:53:19.526Z,1008.90
2019-02-04T00:54:19.562Z,1008.87
2019-02-04T00:55:19.656Z,1008.93
2019-02-04T00:56:19.494Z,1008.93
2019-02-04T00:57:19.483Z,1008.94
2019-02-04T00:58:19.466Z,1008.97
2019-02-04T00:59:19.462Z,1008.94
2019-02-04T01:00:19.449Z,1008.96
2019-02-04T01:01:19.459Z,1008.86
2019-02-04T01:02:19.431Z,1008.92
2019-02-04T01:03:19.419Z,1008.95
2019-02-04T01:04:19.408Z,1008.93
2019-02-04T01:05:19.397Z,1008.90
2019-02-04T01:06:19.415Z,1008.92
2019-02-04T01:07:19.372Z,1008.96
2019-02-04T01:08:19.364Z,1008.99
2019-02-04T01:09:19.353Z,1009.04
2019-02-04T01:10:19.344Z,1009.07
2019-02-04T01:11:19.356Z,1009.04
2019-02-04T01:12:19.316Z,1009.12
2019-02-04T01:13:19.312Z,1009.16
2019-02-04T01:14:19.303Z,1009.10
2019-02-04T01:15:19.284Z,1009.16
2019-02-04T01:16:19.311Z,1009.10
2019-02-04T01:17:19.271Z,1009.13
2019-02-04T01:18:19.252Z,1009.14
2019-02-04T01:19:19.245Z,1009.18
2019-02-04T01:20:19.248Z,1009.23
2019-02-04T01:21:19.255Z,1009.23
2019-02-04T01:22:19.206Z,1009.21
2019-02-04T01:23:19.198Z,1009.31
2019-02-04T01:24:19.187Z,1009.32
2019-02-04T01:25:19.182Z,1009.23
2019-02-04T01:26:19.190Z,1009.25
2019-02-04T01:27:19.154Z,1009.27
2019-02-04T01:28:19.148Z,1009.37
2019-02-04T01:29:19.136Z,1009.29
2019-02-04T01:30:19.123Z,1009.33
2019-02-04T01:31:19.138Z,1009.33
2019-02-04T01:32:19.103Z,1009.33
2019-02-04T01:33:19.091Z,1009.32
2019-02-04T01:34:19.082Z,1009.26
2019-02-04T01:35:19.073Z,1009.36
2019-02-04T01:36:19.098Z,1009.41
2019-02-04T01:37:19.057Z,1009.37
2019-02-04T01:38:19.044Z,1009.35
2019-02-04T01:39:19.047Z,1009.40
2019-02-04T01:40:19.028Z,1009.45
2019-02-04T01:41:19.044Z,1009.48
2019-02-04T01:42:19.000Z,1009.40
2019-02-04T01:43:18.996Z,1009.46
2019-02-04T01:44:18.975Z,1009.47
2019-02-04T01:45:18.964Z,1009.50
2019-02-04T01:46:19.081Z,1009.51
2019-02-04T01:47:18.949Z,1009.47
2019-02-04T01:48:18.936Z,1009.42
2019-02-04T01:49:18.938Z,1009.45
2019-02-04T01:50:18.917Z,1009.41
2019-02-04T01:51:18.928Z,1009.45
2019-02-04T01:52:18.904Z,1009.44
2019-02-04T01:53:18.882Z,1009.43
2019-02-04T01:54:18.877Z,1009.46
2019-02-04T01:55:18.873Z,1009.41
2019-02-04T01:56:18.881Z,1009.43
2019-02-04T01:57:18.842Z,1009.54
2019-02-04T01:58:18.828Z,1009.50
2019-02-04T01:59:18.819Z,1009.51
2019-02-04T02:00:18.815Z,1009.61
2019-02-04T02:01:18.826Z,1009.61
2019-02-04T02:02:18.786Z,1009.59
2019-02-04T02:03:18.775Z,1009.55
2019-02-04T02:04:18.765Z,1009.64
2019-02-04T02:05:18.769Z,1009.66
2019-02-04T02:06:18.775Z,1009.66
2019-02-04T02:07:18.754Z,1009.72
2019-02-04T02:08:18.726Z,1009.60
2019-02-04T02:09:18.716Z,1009.69
2019-02-04T02:10:18.704Z,1009.71
2019-02-04T02:11:18.718Z,1009.70
2019-02-04T02:12:18.683Z,1009.66
2019-02-04T02:13:18.667Z,1009.68
2019-02-04T02:14:18.665Z,1009.61
2019-02-04T02:15:18.651Z,1009.66
2019-02-04T02:16:18.786Z,1009.72
2019-02-04T02:17:25.859Z,1009.66
2019-02-04T02:18:19.614Z,1009.64
2019-02-04T02:19:18.610Z,1009.67
2019-02-04T02:20:18.596Z,1009.64
2019-02-04T02:21:18.595Z,1009.72
2019-02-04T02:22:18.604Z,1009.71
2019-02-04T02:23:18.565Z,1009.67
2019-02-04T02:24:18.564Z,1009.68
2019-02-04T02:25:18.546Z,1009.71
2019-02-04T02:26:18.531Z,1009.69
2019-02-04T02:27:18.547Z,1009.65
2019-02-04T02:28:18.512Z,1009.68
2019-02-04T02:29:18.508Z,1009.67
2019-02-04T02:30:18.502Z,1009.70
2019-02-04T02:31:18.479Z,1009.68
2019-02-04T02:32:18.509Z,1009.65
2019-02-04T02:33:29.132Z,1009.63
2019-02-04T02:34:18.448Z,1009.65
2019-02-04T02:35:18.437Z,1009.69
2019-02-04T02:36:18.428Z,1009.62
2019-02-04T02:37:18.444Z,1009.56
2019-02-04T02:38:18.409Z,1009.61
2019-02-04T02:39:18.397Z,1009.71
2019-02-04T02:40:18.383Z,1009.55
2019-02-04T02:41:18.375Z,1009.63
2019-02-04T02:42:18.394Z,1009.62
2019-02-04T02:43:18.354Z,1009.66
2019-02-04T02:44:18.349Z,1009.60
2019-02-04T02:45:18.336Z,1009.64
2019-02-04T02:46:18.321Z,1009.72
2019-02-04T02:47:18.339Z,1009.62
2019-02-04T02:48:18.306Z,1009.68
2019-02-04T02:49:18.296Z,1009.66
2019-02-04T02:50:18.281Z,1009.65
2019-02-04T02:51:18.267Z,1009.80
2019-02-04T02:52:18.286Z,1009.66
2019-02-04T02:53:18.247Z,1009.73
2019-02-04T02:54:18.241Z,1009.74
2019-02-04T02:55:18.228Z,1009.76
2019-02-04T02:56:18.219Z,1009.68
2019-02-04T02:57:18.230Z,1009.65
2019-02-04T02:58:18.196Z,1009.66
2019-02-04T02:59:18.183Z,1009.60
2019-02-04T03:00:18.175Z,1009.66
2019-02-04T03:01:18.164Z,1009.65
2019-02-04T03:02:18.179Z,1009.63
2019-02-04T03:03:18.154Z,1009.63
2019-02-04T03:04:18.134Z,1009.79
2019-02-04T03:05:18.123Z,1009.69
2019-02-04T03:06:18.114Z,1009.62
2019-02-04T03:07:18.124Z,1009.68
2019-02-04T03:08:18.095Z,1009.71
2019-02-04T03:09:18.082Z,1009.71
2019-02-04T03:10:18.070Z,1009.77
2019-02-04T03:11:18.058Z,1009.78
2019-02-04T03:12:18.071Z,1009.78
2019-02-04T03:13:18.040Z,1009.74
2019-02-04T03:14:18.034Z,1009.82
2019-02-04T03:15:18.020Z,1009.85
2019-02-04T03:16:18.155Z,1009.75
2019-02-04T03:17:18.029Z,1009.82
2019-02-04T03:18:17.983Z,1009.85
2019-02-04T03:19:18.016Z,1009.87
2019-02-04T03:20:17.965Z,1009.91
2019-02-04T03:21:17.951Z,1009.84
2019-02-04T03:22:17.989Z,1009.85
2019-02-04T03:23:17.940Z,1009.91
2019-02-04T03:24:17.922Z,1009.87
2019-02-04T03:25:17.913Z,1009.96
2019-02-04T03:26:17.901Z,1009.92
2019-02-04T03:27:17.889Z,1009.72
2019-02-04T03:28:17.910Z,1009.86
2019-02-04T03:29:17.870Z,1009.91
2019-02-04T03:30:17.875Z,1009.93
2019-02-04T03:31:17.849Z,1009.93
2019-02-04T03:32:17.840Z,1009.97
2019-02-04T03:33:17.856Z,1009.92
2019-02-04T03:34:17.818Z,1009.84
2019-02-04T03:35:17.803Z,1009.88
2019-02-04T03:36:17.805Z,1009.91
2019-02-04T03:37:17.788Z,1009.86
2019-02-04T03:38:17.801Z,1009.94
2019-02-04T03:39:17.764Z,1009.88
2019-02-04T03:40:17.756Z,1009.90
2019-02-04T03:41:17.741Z,1009.88
2019-02-04T03:42:17.730Z,1009.86
2019-02-04T03:43:17.745Z,1009.96
2019-02-04T03:44:17.707Z,1009.93
2019-02-04T03:45:17.699Z,1009.97
2019-02-04T03:46:17.687Z,1010.06
2019-02-04T03:47:17.678Z,1010.00
2019-02-04T03:48:17.692Z,1009.99
2019-02-04T03:49:17.659Z,1009.96
2019-02-04T03:50:17.652Z,1009.94
2019-02-04T03:51:17.637Z,1009.94
2019-02-04T03:52:17.624Z,1009.98
2019-02-04T03:53:17.635Z,1010.01
2019-02-04T03:54:17.604Z,1010.03
2019-02-04T03:55:17.592Z,1010.03
2019-02-04T03:56:17.660Z,1009.99
2019-02-04T03:57:17.572Z,1009.95
2019-02-04T03:58:17.594Z,1010.00
2019-02-04T03:59:17.551Z,1010.00
2019-02-04T04:00:17.541Z,1009.97
2019-02-04T04:01:17.527Z,1009.99
2019-02-04T04:02:17.520Z,1009.98
2019-02-04T04:03:17.537Z,1009.97
2019-02-04T04:04:17.502Z,1009.98
2019-02-04T04:05:17.483Z,1009.92
2019-02-04T04:06:17.478Z,1010.01
2019-02-04T04:07:17.470Z,1009.95
2019-02-04T04:08:17.483Z,1009.92
2019-02-04T04:09:17.443Z,1010.01
2019-02-04T04:10:17.433Z,1009.98
2019-02-04T04:11:17.428Z,1010.04
2019-02-04T04:12:17.414Z,1009.95
2019-02-04T04:13:17.428Z,1009.99
2019-02-04T04:14:17.391Z,1009.99
2019-02-04T04:15:17.385Z,1009.93
2019-02-04T04:16:17.366Z,1009.92
2019-02-04T04:17:17.359Z,1009.98
2019-02-04T04:18:17.375Z,1009.99
2019-02-04T04:19:17.340Z,1009.89
2019-02-04T04:20:17.327Z,1009.94
2019-02-04T04:21:17.315Z,1009.94
2019-02-04T04:22:17.308Z,1009.98
2019-02-04T04:23:17.322Z,1009.92
2019-02-04T04:24:17.287Z,1009.99
2019-02-04T04:25:17.267Z,1010.03
2019-02-04T04:26:17.268Z,1010.06
2019-02-04T04:27:17.259Z,1009.97
2019-02-04T04:28:17.283Z,1010.02
2019-02-04T04:29:17.233Z,1010.04
2019-02-04T04:30:17.228Z,1010.06
2019-02-04T04:31:17.213Z,1010.09
2019-02-04T04:32:17.202Z,1009.99
2019-02-04T04:33:17.193Z,1009.96
2019-02-04T04:34:17.209Z,1010.04
2019-02-04T04:35:17.168Z,1010.06
2019-02-04T04:36:17.161Z,1010.07
2019-02-04T04:37:17.153Z,1010.05
2019-02-04T04:38:17.139Z,1010.03
2019-02-04T04:39:17.151Z,1010.03
2019-02-04T04:40:17.120Z,1010.11
2019-02-04T04:41:17.109Z,1010.04
2019-02-04T04:42:17.096Z,1010.00
2019-02-04T04:43:17.083Z,1010.14
2019-02-04T04:44:17.099Z,1010.12
2019-02-04T04:45:17.081Z,1010.02
2019-02-04T04:46:17.097Z,1010.12
2019-02-04T04:47:17.046Z,1010.15
2019-02-04T04:48:26.344Z,1010.13
2019-02-04T04:49:18.044Z,1010.05
2019-02-04T04:51:08.062Z,1010.02
2019-02-04T04:52:08.046Z,1009.99
2019-02-04T04:53:08.027Z,1010.05
2019-02-04T04:54:08.047Z,1010.00
2019-02-04T04:55:08.009Z,1010.07
2019-02-04T04:56:07.994Z,1009.92
2019-02-04T04:57:08.091Z,1009.92
2019-02-04T04:58:08.019Z,1009.93
2019-02-04T04:59:07.998Z,1009.93
2019-02-04T05:00:07.954Z,1009.88
2019-02-04T05:01:07.947Z,1009.86
2019-02-04T05:02:07.931Z,1009.86
2019-02-04T05:03:07.926Z,1009.87
2019-02-04T05:04:07.938Z,1009.88
2019-02-04T05:05:07.899Z,1009.76
2019-02-04T05:06:07.895Z,1009.87
2019-02-04T05:07:07.887Z,1009.80
2019-02-04T05:08:07.868Z,1009.76
2019-02-04T05:09:07.887Z,1009.74
2019-02-04T05:10:07.848Z,1009.78
2019-02-04T05:11:07.835Z,1009.72
2019-02-04T05:12:07.829Z,1009.76
2019-02-04T05:13:07.820Z,1009.74
2019-02-04T05:14:07.850Z,1009.69
2019-02-04T05:15:07.797Z,1009.77
2019-02-04T05:16:07.790Z,1009.71
2019-02-04T05:17:07.770Z,1009.79
2019-02-04T05:18:07.767Z,1009.76
2019-02-04T05:19:07.785Z,1009.72
2019-02-04T05:20:07.740Z,1009.73
2019-02-04T05:21:07.732Z,1009.78
2019-02-04T05:22:07.719Z,1009.76
2019-02-04T05:23:07.712Z,1009.77
2019-02-04T05:24:07.719Z,1009.71
2019-02-04T05:25:07.687Z,1009.75
2019-02-04T05:26:07.678Z,1009.78
2019-02-04T05:27:07.666Z,1009.69
2019-02-04T05:28:07.654Z,1009.75
2019-02-04T05:29:07.670Z,1009.80
2019-02-04T05:30:07.635Z,1009.79
2019-02-04T05:31:07.823Z,1009.72
2019-02-04T05:32:07.611Z,1009.74
2019-02-04T05:33:07.604Z,1009.69
2019-02-04T05:34:07.631Z,1009.72
2019-02-04T05:35:07.581Z,1009.75
2019-02-04T05:36:07.576Z,1009.79
2019-02-04T05:37:07.558Z,1009.70
2019-02-04T05:38:07.546Z,1009.84
2019-02-04T05:39:07.539Z,1009.82
2019-02-04T05:40:07.553Z,1009.69
2019-02-04T05:41:07.519Z,1009.78
2019-02-04T05:42:07.511Z,1009.76
2019-02-04T05:43:07.496Z,1009.81
2019-02-04T05:44:07.483Z,1009.81
2019-02-04T05:45:07.495Z,1009.76
2019-02-04T05:46:07.464Z,1009.75
2019-02-04T05:47:07.450Z,1009.70
2019-02-04T05:48:07.446Z,1009.77
2019-02-04T05:49:07.431Z,1009.75
2019-02-04T05:50:07.446Z,1009.79
2019-02-04T05:51:07.414Z,1009.78
2019-02-04T05:52:07.398Z,1009.67
2019-02-04T05:53:07.397Z,1009.77
2019-02-04T05:54:07.388Z,1009.72
2019-02-04T05:55:07.399Z,1009.78
2019-02-04T05:56:07.354Z,1009.77
2019-02-04T05:57:07.347Z,1009.74
2019-02-04T05:58:07.337Z,1009.78
2019-02-04T05:59:07.327Z,1009.74
2019-02-04T06:00:07.343Z,1009.82
2019-02-04T06:01:07.306Z,1009.84
2019-02-04T06:02:09.439Z,1009.81
2019-02-04T06:03:07.284Z,1009.96
2019-02-04T06:04:07.274Z,1009.87
2019-02-04T06:05:07.286Z,1009.84
2019-02-04T06:06:07.250Z,1009.94
2019-02-04T06:07:07.242Z,1009.90
2019-02-04T06:08:07.230Z,1009.85
2019-02-04T06:09:07.229Z,1009.92
2019-02-04T06:10:07.235Z,1009.97
2019-02-04T06:11:07.231Z,1010.00
2019-02-04T06:12:07.216Z,1010.00
2019-02-04T06:13:07.262Z,1010.00
2019-02-04T06:14:07.234Z,1010.00
2019-02-04T06:15:07.194Z,1009.98
2019-02-04T06:16:07.189Z,1009.96
2019-02-04T06:17:07.146Z,1009.99
2019-02-04T06:18:07.129Z,1009.99
2019-02-04T06:19:07.124Z,1010.01
2019-02-04T06:20:07.232Z,1009.94
2019-02-04T06:21:07.171Z,1010.00
2019-02-04T06:22:07.163Z,1009.95
2019-02-04T06:23:07.086Z,1009.93
2019-02-04T06:24:07.063Z,1009.97
2019-02-04T06:25:07.079Z,1009.86
2019-02-04T06:26:07.046Z,1009.95
2019-02-04T06:27:07.031Z,1009.88
2019-02-04T06:28:07.037Z,1010.01
2019-02-04T06:29:07.015Z,1009.98
2019-02-04T06:30:07.036Z,1009.98
2019-02-04T06:31:06.994Z,1009.97
2019-02-04T06:32:07.013Z,1010.09
2019-02-04T06:33:06.990Z,1009.95
2019-02-04T06:34:06.980Z,1010.03
2019-02-04T06:35:07.086Z,1010.01
2019-02-04T06:36:06.942Z,1010.01
2019-02-04T06:37:06.931Z,1010.01
2019-02-04T06:38:06.919Z,1009.98
2019-02-04T06:39:06.908Z,1010.04
2019-02-04T06:40:06.900Z,1009.96
2019-02-04T06:41:06.920Z,1010.02
2019-02-04T06:42:06.874Z,1009.99
2019-02-04T06:43:06.867Z,1010.05
2019-02-04T06:44:06.854Z,1009.98
2019-02-04T06:45:06.843Z,1010.02
2019-02-04T06:46:06.867Z,1010.01
2019-02-04T06:47:06.957Z,1010.06
2019-02-04T06:48:06.811Z,1010.08
2019-02-04T06:49:12.526Z,1010.11
2019-02-04T06:50:07.791Z,1010.11
2019-02-04T06:51:06.807Z,1010.11
2019-02-04T06:52:06.775Z,1010.01
2019-02-04T06:53:06.760Z,1010.09
2019-02-04T06:54:06.815Z,1010.11
2019-02-04T06:55:06.751Z,1010.05
2019-02-04T06:56:06.755Z,1010.03
2019-02-04T06:57:06.721Z,1010.11
2019-02-04T06:58:06.708Z,1010.05
2019-02-04T06:59:06.700Z,1010.14
2019-02-04T07:00:06.687Z,1010.10
2019-02-04T07:01:06.702Z,1010.08
2019-02-04T07:02:06.667Z,1010.05
2019-02-04T07:03:06.662Z,1010.07
2019-02-04T07:04:06.644Z,1010.11
2019-02-04T07:05:06.634Z,1010.14
2019-02-04T07:06:06.647Z,1010.18
2019-02-04T07:07:06.616Z,1010.13
2019-02-04T07:08:06.621Z,1010.15
2019-02-04T07:09:06.595Z,1010.06
2019-02-04T07:10:06.593Z,1010.09
2019-02-04T07:11:06.603Z,1010.09
2019-02-04T07:12:06.559Z,1010.12
2019-02-04T07:13:06.546Z,1010.21
2019-02-04T07:14:06.539Z,1010.19
2019-02-04T07:15:06.532Z,1010.16
2019-02-04T07:16:06.539Z,1010.16
2019-02-04T07:17:06.506Z,1010.19
2019-02-04T07:18:06.497Z,1010.15
2019-02-04T07:19:06.524Z,1010.10
2019-02-04T07:20:06.478Z,1010.16
2019-02-04T07:21:06.488Z,1010.16
2019-02-04T07:22:06.453Z,1010.18
2019-02-04T07:23:06.442Z,1010.12
2019-02-04T07:24:06.432Z,1010.22
2019-02-04T07:25:06.418Z,1010.06
2019-02-04T07:26:06.435Z,1010.05
2019-02-04T07:27:06.410Z,1010.00
2019-02-04T07:28:06.388Z,1010.11
2019-02-04T07:29:06.380Z,1010.11
2019-02-04T07:30:06.367Z,1010.10
2019-02-04T07:31:06.384Z,1010.08
2019-02-04T07:32:06.351Z,1010.12
2019-02-04T07:33:06.336Z,1010.12
2019-02-04T07:34:06.324Z,1010.05
2019-02-04T07:35:06.316Z,1010.12
2019-02-04T07:36:06.336Z,1010.05
2019-02-04T07:37:06.294Z,1010.10
2019-02-04T07:38:06.287Z,1010.00
2019-02-04T07:39:06.274Z,1010.05
2019-02-04T07:40:06.266Z,1010.01
2019-02-04T07:41:06.285Z,1010.07
2019-02-04T07:42:06.246Z,1010.10
2019-02-04T07:43:06.238Z,1010.12
2019-02-04T07:44:06.231Z,1010.07
2019-02-04T07:45:06.211Z,1010.12
2019-02-04T07:46:06.230Z,1010.03
2019-02-04T07:47:06.191Z,1010.10
2019-02-04T07:48:06.179Z,1010.04
2019-02-04T07:49:06.171Z,1009.95
2019-02-04T07:50:06.160Z,1010.03
2019-02-04T07:51:06.195Z,1010.00
2019-02-04T07:52:06.139Z,1009.97
2019-02-04T07:53:06.117Z,1009.97
2019-02-04T07:54:06.120Z,1009.92
2019-02-04T07:55:06.107Z,1010.04
2019-02-04T07:56:06.095Z,1009.99
2019-02-04T07:57:06.117Z,1009.99
2019-02-04T07:58:06.075Z,1009.97
2019-02-04T07:59:06.062Z,1010.01
2019-02-04T08:00:06.060Z,1010.01
2019-02-04T08:01:06.042Z,1009.98
2019-02-04T08:02:06.062Z,1010.02
2019-02-04T08:03:06.027Z,1010.02
2019-02-04T08:04:06.017Z,1009.98
2019-02-04T08:05:06.011Z,1009.99
2019-02-04T08:06:06.003Z,1009.97
2019-02-04T08:07:06.006Z,1009.90
2019-02-04T08:08:05.974Z,1009.89
2019-02-04T08:09:05.965Z,1009.82
2019-02-04T08:10:05.950Z,1009.89
2019-02-04T08:11:05.943Z,1009.95
2019-02-04T08:12:05.955Z,1009.92
2019-02-04T08:13:05.925Z,1009.78
2019-02-04T08:14:05.915Z,1009.77
2019-02-04T08:15:05.907Z,1009.77
2019-02-04T08:16:05.899Z,1009.76
2019-02-04T08:17:05.903Z,1009.73
2019-02-04T08:18:05.868Z,1009.73
2019-02-04T08:19:05.856Z,1009.75
2019-02-04T08:20:05.845Z,1009.77
2019-02-04T08:21:05.838Z,1009.79
2019-02-04T08:22:05.855Z,1009.75
2019-02-04T08:23:05.816Z,1009.72
2019-02-04T08:24:05.806Z,1009.72
2019-02-04T08:25:05.804Z,1009.79
2019-02-04T08:26:05.785Z,1009.70
2019-02-04T08:27:05.801Z,1009.82
2019-02-04T08:28:05.762Z,1009.81
2019-02-04T08:29:05.751Z,1009.88
2019-02-04T08:30:05.750Z,1009.86
2019-02-04T08:31:05.747Z,1009.74
2019-02-04T08:32:05.751Z,1009.72
2019-02-04T08:33:05.711Z,1009.66
2019-02-04T08:34:05.700Z,1009.76
2019-02-04T08:35:05.687Z,1009.72
2019-02-04T08:36:05.679Z,1009.78
2019-02-04T08:37:05.702Z,1009.80
2019-02-04T08:38:05.663Z,1009.76
2019-02-04T08:39:05.648Z,1009.75
2019-02-04T08:40:05.635Z,1009.77
2019-02-04T08:41:05.694Z,1009.79
2019-02-04T08:42:05.665Z,1009.81
2019-02-04T08:43:05.629Z,1009.87
2019-02-04T08:44:05.592Z,1009.82
2019-02-04T08:45:05.583Z,1009.89
2019-02-04T08:46:05.571Z,1009.81
2019-02-04T08:47:05.565Z,1009.82
2019-02-04T08:48:05.578Z,1009.73
2019-02-04T08:49:05.547Z,1009.84
2019-02-04T08:50:05.531Z,1009.77
2019-02-04T08:51:05.519Z,1009.86
2019-02-04T08:52:05.508Z,1009.82
2019-02-04T08:53:05.525Z,1009.75
2019-02-04T08:54:05.488Z,1009.78
2019-02-04T08:55:05.475Z,1009.83
2019-02-04T08:56:05.469Z,1009.83
2019-02-04T08:57:05.456Z,1009.83
2019-02-04T08:58:05.476Z,1009.84
2019-02-04T08:59:05.440Z,1009.84
2019-02-04T09:00:05.424Z,1009.77
2019-02-04T09:01:05.412Z,1009.82
2019-02-04T09:02:05.403Z,1009.86
2019-02-04T09:03:05.417Z,1009.83
2019-02-04T09:04:05.379Z,1009.85
2019-02-04T09:05:05.372Z,1009.86
2019-02-04T09:06:05.361Z,1009.89
2019-02-04T09:07:05.346Z,1009.84
2019-02-04T09:08:05.364Z,1009.72
2019-02-04T09:09:05.328Z,1009.78
2019-02-04T09:10:05.318Z,1009.76
2019-02-04T09:11:05.309Z,1009.87
2019-02-04T09:12:05.296Z,1009.85
2019-02-04T09:13:05.310Z,1009.82
2019-02-04T09:14:05.281Z,1009.68
2019-02-04T09:15:05.264Z,1009.79
2019-02-04T09:16:05.255Z,1009.76
2019-02-04T09:17:05.255Z,1009.87
2019-02-04T09:18:05.281Z,1009.82
2019-02-04T09:19:05.220Z,1009.75
2019-02-04T09:20:10.186Z,1009.82
2019-02-04T09:21:06.201Z,1009.85
2019-02-04T09:22:05.198Z,1009.80
2019-02-04T09:23:06.189Z,1009.88
2019-02-04T09:24:05.192Z,1009.83
2019-02-04T09:25:05.158Z,1009.76
2019-02-04T09:26:05.157Z,1009.82
2019-02-04T09:27:05.135Z,1009.76
2019-02-04T09:28:05.127Z,1009.83
2019-02-04T09:29:05.142Z,1009.81
2019-02-04T09:30:05.102Z,1009.73
2019-02-04T09:31:05.092Z,1009.87
2019-02-04T09:32:05.085Z,1009.74
2019-02-04T09:33:05.071Z,1009.72
2019-02-04T09:34:05.083Z,1009.75
2019-02-04T09:35:05.047Z,1009.75
2019-02-04T09:36:05.043Z,1009.67
2019-02-04T09:37:05.036Z,1009.74
2019-02-04T09:38:05.027Z,1009.70
2019-02-04T09:39:05.031Z,1009.69
2019-02-04T09:40:04.999Z,1009.68
2019-02-04T09:41:04.988Z,1009.61
2019-02-04T09:42:04.977Z,1009.60
2019-02-04T09:43:04.966Z,1009.64
2019-02-04T09:44:04.986Z,1009.57
2019-02-04T09:45:04.945Z,1009.53
2019-02-04T09:46:04.943Z,1009.58
2019-02-04T09:47:04.918Z,1009.58
2019-02-04T09:48:04.913Z,1009.53
2019-02-04T09:49:04.945Z,1009.53
2019-02-04T09:50:04.886Z,1009.49
2019-02-04T09:51:04.878Z,1009.56
2019-02-04T09:52:04.869Z,1009.54
2019-02-04T09:53:04.859Z,1009.45
2019-02-04T09:54:04.853Z,1009.46
2019-02-04T09:55:04.863Z,1009.54
2019-02-04T09:56:04.828Z,1009.46
2019-02-04T09:57:04.814Z,1009.47
2019-02-04T09:58:04.805Z,1009.42
2019-02-04T09:59:04.795Z,1009.44
2019-02-04T10:00:04.820Z,1009.36
2019-02-04T10:01:04.774Z,1009.41
2019-02-04T10:02:04.763Z,1009.38
2019-02-04T10:03:04.753Z,1009.48
2019-02-04T10:04:04.741Z,1009.49
2019-02-04T10:05:04.757Z,1009.43
2019-02-04T10:06:04.719Z,1009.39
2019-02-04T10:07:04.706Z,1009.41
2019-02-04T10:08:04.700Z,1009.40
2019-02-04T10:09:04.688Z,1009.40
2019-02-04T10:10:04.700Z,1009.25
2019-02-04T10:11:04.668Z,1009.28
2019-02-04T10:12:04.660Z,1009.32
2019-02-04T10:13:04.645Z,1009.34
2019-02-04T10:14:04.636Z,1009.30
2019-02-04T10:15:04.671Z,1009.25
2019-02-04T10:16:04.648Z,1009.28
2019-02-04T10:17:04.606Z,1009.28
2019-02-04T10:18:04.620Z,1009.37
2019-02-04T10:19:04.585Z,1009.28
2019-02-04T10:20:04.600Z,1009.26
2019-02-04T10:21:04.570Z,1009.30
2019-02-04T10:22:04.658Z,1009.19
2019-02-04T10:23:04.594Z,1009.26
2019-02-04T10:24:04.660Z,1009.17
2019-02-04T10:25:04.535Z,1009.19
2019-02-04T10:26:04.543Z,1009.21
2019-02-04T10:27:04.507Z,1009.17
2019-02-04T10:28:04.521Z,1009.22
2019-02-04T10:29:04.482Z,1009.23
2019-02-04T10:30:04.528Z,1009.17
2019-02-04T10:31:04.456Z,1009.22
2019-02-04T10:32:04.461Z,1009.28
2019-02-04T10:33:04.436Z,1009.25
2019-02-04T10:34:04.442Z,1009.24
2019-02-04T10:35:04.479Z,1009.21
2019-02-04T10:36:04.416Z,1009.19
2019-02-04T10:37:04.428Z,1009.21
2019-02-04T10:38:04.398Z,1009.18
2019-02-04T10:39:04.440Z,1009.15
2019-02-04T10:40:04.431Z,1009.16
2019-02-04T10:41:04.347Z,1009.18
2019-02-04T10:42:04.361Z,1009.10
2019-02-04T10:43:04.354Z,1009.21
2019-02-04T10:44:04.336Z,1009.11
2019-02-04T10:45:04.334Z,1009.15
2019-02-04T10:46:04.947Z,1009.16
2019-02-04T10:47:04.284Z,1009.22
2019-02-04T10:48:04.278Z,1009.18
2019-02-04T10:49:04.264Z,1009.11
2019-02-04T10:50:04.310Z,1009.14
2019-02-04T10:51:04.299Z,1009.27
2019-02-04T10:52:04.279Z,1009.12
2019-02-04T10:53:04.247Z,1009.11
2019-02-04T10:54:04.206Z,1009.15
2019-02-04T10:55:04.199Z,1009.19
2019-02-04T10:56:04.352Z,1009.22
2019-02-04T10:57:04.179Z,1009.18
2019-02-04T10:58:04.205Z,1009.22
2019-02-04T10:59:04.166Z,1009.21
2019-02-04T11:00:04.186Z,1009.16
2019-02-04T11:01:04.164Z,1009.18
2019-02-04T11:02:04.131Z,1009.23
2019-02-04T11:03:04.143Z,1009.05
2019-02-04T11:04:04.107Z,1009.20
2019-02-04T11:05:04.096Z,1009.14
2019-02-04T11:06:04.112Z,1009.22
2019-02-04T11:07:04.101Z,1009.17
2019-02-04T11:08:04.066Z,1009.13
2019-02-04T11:09:04.094Z,1009.14
2019-02-04T11:10:04.083Z,1009.16
2019-02-04T11:11:04.094Z,1009.07
2019-02-04T11:12:04.022Z,1009.10
2019-02-04T11:13:04.055Z,1009.11
2019-02-04T11:14:04.043Z,1009.09
2019-02-04T11:15:03.990Z,1009.05
2019-02-04T11:16:04.026Z,1009.06
2019-02-04T11:17:03.970Z,1009.12
2019-02-04T11:18:03.991Z,1009.13
2019-02-04T11:19:03.981Z,1009.07
2019-02-04T11:20:03.936Z,1009.05
2019-02-04T11:21:03.965Z,1009.03
2019-02-04T11:22:03.949Z,1009.07
2019-02-04T11:23:03.949Z,1009.12
2019-02-04T11:24:03.951Z,1009.07
2019-02-04T11:25:03.885Z,1009.07
2019-02-04T11:26:03.952Z,1009.06
2019-02-04T11:27:03.917Z,1009.04
2019-02-04T11:28:03.851Z,1009.01
2019-02-04T11:29:03.870Z,1009.06
2019-02-04T11:30:03.834Z,1009.00
2019-02-04T11:31:03.923Z,1009.06
2019-02-04T11:32:03.811Z,1009.00
2019-02-04T11:33:03.834Z,1009.13
2019-02-04T11:34:03.838Z,1009.01
2019-02-04T11:35:03.810Z,1009.05
2019-02-04T11:36:03.771Z,1009.05
2019-02-04T11:37:03.836Z,1009.04
2019-02-04T11:38:03.917Z,1009.04
2019-02-04T11:39:03.742Z,1009.09
2019-02-04T11:40:03.731Z,1009.04
2019-02-04T11:41:03.717Z,1009.03
2019-02-04T11:42:03.731Z,1008.92
2019-02-04T11:43:03.720Z,1008.98
2019-02-04T11:44:03.680Z,1008.97
2019-02-04T11:45:03.766Z,1008.98
2019-02-04T11:46:03.662Z,1008.91
2019-02-04T11:47:03.679Z,1008.89
2019-02-04T11:48:03.648Z,1009.00
2019-02-04T11:49:03.627Z,1008.98
2019-02-04T11:50:03.621Z,1008.95
2019-02-04T11:51:09.682Z,1008.95
2019-02-04T11:52:04.626Z,1008.96
2019-02-04T11:53:03.597Z,1008.92
2019-02-04T11:54:03.576Z,1008.94
2019-02-04T11:55:03.564Z,1008.87
2019-02-04T11:56:03.552Z,1008.87
2019-02-04T11:57:03.567Z,1008.96
2019-02-04T11:58:03.541Z,1008.89
2019-02-04T11:59:03.527Z,1008.96
2019-02-04T12:00:03.518Z,1008.94
2019-02-04T12:01:03.502Z,1008.89
2019-02-04T12:02:03.515Z,1008.85
2019-02-04T12:03:03.481Z,1008.86
2019-02-04T12:04:03.474Z,1008.86
2019-02-04T12:05:03.460Z,1008.73
2019-02-04T12:06:03.447Z,1008.83